Latest Weather Observations for Bushy Park

IDT60901

Issued at 11:55 pm EST Tuesday 30 September 2014 (issued every 10 minutes, with the page automatically refreshed every 10 minutes)

About weather observations | Map of Hobart area stations | Latest observations for Hobart area | Other Formats
Station Details ID: 095003 Name: BUSHY PARK (BUSHY PARK ESTATES) Lat: -42.71 Lon: 146.90 Height: 27.0 m
Data from the previous 72 hours. | See also: Recent months at Bushy Park
Date/Time
EST
Tmp

°C
App
Tmp
°C
Dew
Point
°C
Rel
Hum
%
Delta-T

°C
Wind Press
QNH
hPa
Press
MSL
hPa
Rain
since
9 am
mm
Dir
 
Spd
km/h
Gust
km/h
Spd
kts
Gust
kts
30/11:30pm 5.7 0.3 2.6 80 1.3 NW 20 30 11 16 - - 2.4
30/11:00pm 6.2 1.5 1.2 70 2.0 NW 15 32 8 17 - - 2.4
30/10:30pm 5.2 1.8 2.0 80 1.3 W 9 17 5 9 - - 2.4
30/10:00pm 6.3 1.1 2.2 75 1.7 NNW 19 28 10 15 - - 2.4
30/09:30pm 5.5 1.8 2.3 80 1.3 NW 11 17 6 9 - - 2.4
30/09:00pm 5.3 1.7 2.9 84 1.0 N 11 15 6 8 - - 2.4
30/08:30pm 5.7 2.6 3.6 86 0.9 NNW 9 11 5 6 - - 2.4
30/08:00pm 6.0 2.7 2.6 79 1.4 WNW 9 15 5 8 - - 2.2
30/07:30pm 7.0 3.4 3.2 77 1.6 W 11 19 6 10 - - 2.2
30/07:00pm 7.7 4.0 2.5 69 2.2 WNW 11 17 6 9 - - 2.0
30/06:30pm 7.7 3.1 1.6 65 2.5 W 15 32 8 17 - - 2.0
30/06:00pm 8.7 5.4 4.7 76 1.8 WSW 11 15 6 8 - - 1.8
30/05:30pm 9.2 6.5 5.7 79 1.6 NW 9 13 5 7 - - 1.6
30/05:00pm 10.4 5.9 4.4 66 2.7 WSW 17 37 9 20 - - 1.6
30/04:30pm 11.5 7.1 4.7 63 3.1 WSW 17 24 9 13 - - 1.6
30/04:00pm 12.0 9.6 6.8 70 2.5 WNW 9 13 5 7 - - 1.6
30/03:30pm 12.5 7.3 7.2 70 2.6 N 24 33 13 18 - - 1.4
30/03:00pm 12.2 7.4 7.5 73 2.3 N 22 30 12 16 - - 1.4
30/02:30pm 11.0 8.1 8.2 83 1.4 N 13 15 7 8 - - 1.4
30/02:00pm 11.3 7.4 6.9 74 2.1 NW 17 28 9 15 - - 1.2
30/01:30pm 11.8 9.5 7.3 74 2.2 N 9 13 5 7 - - 1.2
30/01:00pm 11.6 7.0 8.2 79 1.7 WSW 22 46 12 25 - - 0.8
30/12:53pm 14.0 8.2 8.0 67 3.0 W 28 46 15 25 - - 0.0
30/12:30pm 16.5 12.7 7.4 55 4.5 NNW 17 33 9 18 - - 0.0
30/12:00pm 15.9 10.5 6.3 53 4.7 NW 24 37 13 20 - - 0.0
30/11:30am 16.4 11.6 7.2 54 4.6 NNW 22 35 12 19 - - 0.0
30/11:00am 16.0 6.8 6.5 53 4.6 NW 44 69 24 37 - - 0.0
30/10:45am 16.7 7.0 5.9 49 5.2 NW 46 65 25 35 - - 0.0
30/10:42am 16.6 11.6 6.5 51 5.0 NW 22 59 12 32 - - 0.0
30/10:30am 16.3 10.3 6.9 53 4.6 NW 28 37 15 20 - - 0.0
30/10:00am 15.8 12.9 6.7 54 4.5 W 11 19 6 10 - - 0.0
30/09:30am 16.9 11.5 4.5 43 5.9 N 22 33 12 18 - - 0.0
30/09:00am 16.1 10.4 4.8 47 5.3 N 24 33 13 18 - - 0.0
30/08:30am 17.0 11.5 5.8 47 5.4 N 24 32 13 17 - - 0.0
30/08:00am 15.1 12.4 5.5 52 4.6 N 9 15 5 8 - - 0.0
30/07:30am 13.7 10.5 5.0 55 4.0 NNW 11 17 6 9 - - 0.0
30/07:00am 13.6 11.1 4.8 55 4.1 N 7 11 4 6 - - 0.0
30/06:30am 12.0 9.3 5.4 64 3.1 NW 9 13 5 7 - - 0.0
30/06:00am 11.7 8.4 4.7 62 3.2 WNW 11 15 6 8 - - 0.0
30/05:30am 11.7 8.0 4.7 62 3.2 NW 13 19 7 10 - - 0.0
30/05:00am 11.7 7.3 4.5 61 3.3 NNW 17 19 9 10 - - 0.0
30/04:30am 11.9 7.9 4.7 61 3.3 NNW 15 19 8 10 - - 0.0
30/04:00am 12.7 7.7 4.7 58 3.7 N 20 30 11 16 - - 0.0
30/03:30am 13.0 5.6 3.8 53 4.1 N 32 48 17 26 - - 0.0
30/03:00am 13.0 5.5 3.5 52 4.3 NNW 32 48 17 26 - - 0.0
30/02:30am 13.3 7.3 3.6 52 4.4 NNW 24 39 13 21 - - 0.0
30/02:00am 14.5 7.7 3.0 46 5.2 NW 28 48 15 26 - - 0.0
30/01:30am 14.8 7.1 3.2 45 5.2 WNW 33 56 18 30 - - 0.0
30/01:09am 14.6 7.0 4.0 49 4.9 NW 33 57 18 31 - - 0.0
30/01:00am 14.7 6.4 4.2 49 4.8 NW 37 52 20 28 - - 0.0
30/12:30am 14.6 5.6 4.3 50 4.8 NNW 41 59 22 32 - - 0.0
30/12:00am 14.6 5.9 4.3 50 4.8 NNW 39 61 21 33 - - 0.0
 
Date/Time
EST
Tmp

°C
App
Tmp
°C
Dew
Point
°C
Rel
Hum
%
Delta-T

°C
Wind Press
QNH
hPa
Press
MSL
hPa
Rain
since
9 am
mm
Dir
 
Spd
km/h
Gust
km/h
Spd
kts
Gust
kts
29/11:58pm 14.6 5.9 4.3 50 4.8 NNW 39 57 21 31 - - 0.0
29/11:30pm 14.4 6.8 4.0 49 4.8 N 33 46 18 25 - - 0.0
29/11:00pm 14.1 6.7 3.9 50 4.7 N 32 43 17 23 - - 0.0
29/10:33pm 13.8 5.4 3.8 51 4.5 N 37 57 20 31 - - 0.0
29/10:30pm 13.8 5.8 3.8 51 4.5 N 35 52 19 28 - - 0.0
29/10:00pm 13.7 4.9 3.6 50 4.6 N 39 57 21 31 - - 0.0
29/09:30pm 13.7 2.8 3.3 49 4.7 NNW 50 69 27 37 - - 0.0
29/09:00pm 13.4 4.0 2.6 48 4.8 NNW 41 61 22 33 - - 0.0
29/08:53pm 13.3 3.9 2.5 48 4.7 NNW 41 61 22 33 - - 0.0
29/08:30pm 13.0 3.5 2.0 47 4.8 NNW 41 57 22 31 - - 0.0
29/08:00pm 13.4 3.5 1.4 44 5.2 NNW 43 59 23 32 - - 0.0
29/07:49pm 13.5 3.0 1.2 43 5.3 NNW 46 67 25 36 - - 0.0
29/07:30pm 13.7 3.1 0.6 40 5.5 NNW 46 63 25 34 - - 0.0
29/07:00pm 14.0 2.6 0.4 39 5.7 NNW 50 74 27 40 - - 0.0
29/06:30pm 14.6 3.2 0.4 38 6.0 NW 50 80 27 43 - - 0.0
29/06:23pm 14.9 3.1 0.2 36 6.2 NW 52 80 28 43 - - 0.0
29/06:00pm 15.1 5.4 0.8 37 6.2 NW 41 61 22 33 - - 0.0
29/05:30pm 15.5 5.0 1.2 38 6.2 NW 46 69 25 37 - - 0.0
29/05:00pm 15.8 5.6 1.0 36 6.4 NW 44 67 24 36 - - 0.0
29/04:32pm 16.4 7.8 0.3 33 6.9 NW 35 57 19 31 - - 0.0
29/04:30pm 16.4 7.9 0.7 34 6.8 NW 35 52 19 28 - - 0.0
29/04:00pm 17.2 7.4 2.0 36 6.8 NW 43 65 23 35 - - 0.0
29/03:30pm 15.8 5.6 1.0 36 6.4 NW 44 63 24 34 - - 0.0
29/03:00pm 17.5 7.6 1.5 34 7.1 NW 43 63 23 34 - - 0.0
29/02:30pm 18.2 10.1 0.7 31 7.7 NNW 33 57 18 31 - - 0.0
29/02:22pm 18.0 8.9 -0.4 29 7.9 NNW 37 56 20 30 - - 0.0
29/02:20pm 18.1 8.2 -0.6 28 8.0 NNW 41 56 22 30 - - 0.0
29/02:01pm 18.5 11.1 1.6 32 7.6 NW 30 50 16 27 - - 0.0
29/02:00pm 18.4 11.4 1.7 32 7.5 NW 28 41 15 22 - - 0.0
29/01:30pm 17.9 10.2 -0.2 29 7.8 NNW 30 52 16 28 - - 0.0
29/01:00pm 17.6 9.2 -0.8 28 7.8 NW 33 52 18 28 - - 0.0
29/12:47pm 17.1 9.0 -0.2 31 7.4 NNW 32 50 17 27 - - 0.0
29/12:30pm 17.5 10.6 0.1 31 7.5 NW 26 44 14 24 - - 0.0
29/12:04pm 16.2 9.2 1.7 37 6.4 NNW 28 48 15 26 - - 0.0
29/12:00pm 16.6 11.2 1.3 35 6.7 NNW 19 44 10 24 - - 0.0
29/11:30am 16.2 11.1 1.0 35 6.6 WNW 17 28 9 15 - - 0.0
29/11:00am 16.0 11.5 4.3 45 5.5 W 17 37 9 20 - - 0.0
29/10:45am 15.6 8.7 2.6 41 5.8 NW 28 46 15 25 - - 0.0
29/10:30am 15.7 9.8 1.8 39 6.1 NW 22 46 12 25 - - 0.0
29/10:00am 15.0 10.0 3.5 46 5.2 NNW 19 35 10 19 - - 0.0
29/09:30am 15.0 9.6 2.3 42 5.6 NW 20 37 11 20 - - 0.0
29/09:00am 13.8 7.5 1.7 44 5.2 NNW 24 39 13 21 - - 1.6
29/08:30am 12.2 6.2 3.2 54 4.0 NNW 24 35 13 19 - - 1.6
29/08:00am 11.9 6.9 3.7 57 3.7 NW 19 30 10 16 - - 1.6
29/07:30am 11.4 6.1 4.9 64 3.0 N 22 33 12 18 - - 1.6
29/07:00am 10.6 5.2 4.4 65 2.8 NNW 22 33 12 18 - - 1.6
29/06:30am 9.3 6.1 5.1 75 1.9 NNW 11 19 6 10 - - 1.6
29/06:00am 9.7 4.2 4.1 68 2.5 NNW 22 30 12 16 - - 1.6
29/05:30am 9.5 4.2 4.9 73 2.1 NNW 22 35 12 19 - - 1.6
29/05:00am 9.5 4.9 5.6 76 1.8 N 19 35 10 19 - - 1.6
29/04:30am 10.1 5.6 6.0 76 1.9 NNW 19 32 10 17 - - 1.6
29/04:00am 10.5 5.2 4.8 68 2.6 WNW 22 35 12 19 - - 1.6
29/03:30am 10.6 5.0 7.3 80 1.6 NW 26 41 14 22 - - 1.4
29/03:29am 10.6 4.6 7.1 79 1.7 NW 28 41 15 22 - - 1.4
29/03:00am 11.0 7.8 4.9 66 2.8 NNW 11 17 6 9 - - 0.0
29/02:30am 11.1 8.2 4.5 64 3.0 N 9 15 5 8 - - 0.0
29/02:00am 11.6 7.7 3.6 58 3.5 N 13 17 7 9 - - 0.0
29/01:30am 13.1 7.2 1.9 46 4.8 N 22 30 12 16 - - 0.0
29/01:00am 13.3 7.5 2.5 48 4.7 NNW 22 33 12 18 - - 0.0
29/12:30am 13.6 7.4 2.3 46 5.0 NNW 24 37 13 20 - - 0.0
29/12:00am 14.1 7.0 1.2 41 5.5 NW 28 44 15 24 - - 0.0
 
Date/Time
EST
Tmp

°C
App
Tmp
°C
Dew
Point
°C
Rel
Hum
%
Delta-T

°C
Wind Press
QNH
hPa
Press
MSL
hPa
Rain
since
9 am
mm
Dir
 
Spd
km/h
Gust
km/h
Spd
kts
Gust
kts
28/11:30pm 14.6 8.3 1.7 41 5.6 NW 24 35 13 19 - - 0.0
28/11:00pm 15.3 8.7 1.8 40 5.9 NNW 26 39 14 21 - - 0.0
28/10:30pm 16.1 9.0 3.6 43 5.8 NNW 30 39 16 21 - - 0.0
28/10:11pm 16.4 9.8 4.4 45 5.6 NNW 28 48 15 26 - - 0.0
28/10:00pm 16.6 10.7 5.7 48 5.3 NNW 26 35 14 19 - - 0.0
28/09:30pm 16.1 11.5 8.3 60 4.0 NNW 22 33 12 18 - - 0.0
28/09:00pm 14.9 12.9 10.2 73 2.5 NNW 11 19 6 10 - - 0.0
28/08:30pm 15.2 14.1 10.1 71 2.7 N 6 9 3 5 - - 0.0
28/08:00pm 16.6 14.2 10.0 65 3.5 N 13 17 7 9 - - 0.0
28/07:35pm 18.3 12.9 9.4 56 4.7 NNW 28 46 15 25 - - 0.0
28/07:30pm 19.1 12.5 7.9 48 5.7 NNW 32 48 17 26 - - 0.0
28/07:00pm 18.9 14.8 7.9 49 5.6 NW 19 37 10 20 - - 0.0
28/06:30pm 18.7 14.1 8.1 50 5.4 WNW 22 32 12 17 - - 0.0
28/06:00pm 20.5 16.8 6.3 39 7.1 WNW 15 39 8 21 - - 0.0
28/05:30pm 21.9 14.2 5.4 34 8.2 NNW 35 54 19 29 - - 0.0
28/05:09pm 22.0 14.7 5.5 34 8.2 NNW 33 56 18 30 - - 0.0
28/05:00pm 22.1 14.4 5.4 33 8.3 NNW 35 48 19 26 - - 0.0
28/04:30pm 21.8 14.3 6.1 36 7.9 N 35 54 19 29 - - 0.0
28/04:03pm 22.2 12.1 5.6 34 8.3 N 48 69 26 37 - - 0.0
28/04:00pm 22.4 12.6 5.3 33 8.5 N 46 63 25 34 - - 0.0
28/03:30pm 23.1 12.7 6.2 33 8.6 N 50 74 27 40 - - 0.0
28/03:04pm 21.7 13.5 6.7 37 7.7 N 39 59 21 32 - - 0.0
28/03:00pm 21.5 13.3 6.4 37 7.6 N 39 50 21 27 - - 0.0
28/02:30pm 23.0 13.2 5.1 31 8.9 NNW 46 70 25 38 - - 0.0
28/02:23pm 23.3 14.3 4.7 30 9.2 N 41 59 22 32 - - 0.0
28/02:16pm 24.0 16.2 4.7 28 9.6 NNW 35 74 19 40 - - 0.0
28/02:00pm 24.1 11.9 2.6 24 10.3 NNW 56 85 30 46 - - 0.0
28/01:31pm 24.8 13.7 2.6 23 10.7 NNW 50 93 27 50 - - 0.0
28/01:30pm 24.7 14.0 2.8 24 10.6 NNW 48 72 26 39 - - 0.0
28/01:25pm 24.6 15.0 3.2 25 10.4 NNW 43 74 23 40 - - 0.0
28/01:21pm 24.6 16.0 2.6 24 10.6 NNW 37 89 20 48 - - 0.0
28/01:08pm 24.9 11.2 1.7 22 11.0 NNW 63 82 34 44 - - 0.0
28/01:07pm 24.9 10.9 2.1 22 10.9 NNW 65 80 35 43 - - 0.0
28/01:00pm 25.0 15.4 4.3 26 10.3 NNW 44 65 24 35 - - 0.0
28/12:30pm 26.4 14.2 3.7 23 11.3 NNW 57 80 31 43 - - 0.0
28/12:00pm 27.1 14.0 3.0 21 11.9 N 61 87 33 47 - - 0.0
28/11:30am 27.0 13.9 0.9 18 12.4 NNW 59 120 32 65 - - 0.0
28/11:26am 27.0 15.0 1.7 19 12.2 NNW 54 120 29 65 - - 0.0
28/11:23am 27.1 8.5 -0.5 16 12.8 NW 87 120 47 65 - - 0.0
28/11:20am 27.1 13.8 -0.5 16 12.8 NNW 59 104 32 56 - - 0.0
28/11:18am 26.9 14.9 1.8 19 12.1 NNW 54 74 29 40 - - 0.0
28/11:17am 27.0 14.6 2.8 21 11.9 NNW 57 74 31 40 - - 0.0
28/11:16am 27.0 19.8 2.8 21 11.9 N 30 63 16 34 - - 0.0
28/11:00am 25.1 20.2 8.5 34 8.9 N 24 35 13 19 - - 0.0
28/10:48am 24.3 18.4 7.5 34 8.8 N 28 43 15 23 - - 0.0
28/10:30am 22.4 21.3 10.7 47 6.4 WNW 7 15 4 8 - - 0.0
28/10:00am 20.0 18.4 11.4 57 4.7 S 11 15 6 8 - - 0.0
28/09:30am 16.9 16.7 11.8 72 2.8 NE 4 7 2 4 - - 0.0
28/09:00am 14.2 13.8 11.0 81 1.7 SW 4 9 2 5 - - 0.2
28/08:30am 12.1 10.9 9.4 83 1.4 SSW 6 9 3 5 - - 0.2
28/08:00am 10.6 9.6 8.8 89 0.9 NNE 4 9 2 5 - - 0.2
28/07:30am 9.2 7.6 8.0 92 0.6 NW 6 7 3 4 - - 0.2
28/07:00am 7.4 5.8 6.5 94 0.4 N 4 9 2 5 - - 0.2
28/06:30am 6.8 5.9 6.1 95 0.3 CALM 0 0 0 0 - - 0.2
28/06:00am 6.7 5.4 6.0 95 0.3 E 2 7 1 4 - - 0.2
28/05:30am 6.8 4.8 6.1 95 0.3 E 6 7 3 4 - - 0.2
28/05:00am 7.1 5.1 6.4 95 0.3 SSW 6 11 3 6 - - 0.2
28/04:30am 7.5 5.1 6.9 96 0.3 S 9 13 5 7 - - 0.2
28/04:00am 7.4 5.5 6.8 96 0.3 N 6 15 3 8 - - 0.2
28/03:30am 7.4 5.5 6.8 96 0.3 NNW 6 9 3 5 - - 0.2
28/03:00am 7.5 6.8 6.9 96 0.3 CALM 0 0 0 0 - - 0.2
28/02:30am 7.5 6.8 6.9 96 0.3 CALM 0 0 0 0 - - 0.2
28/02:00am 7.6 6.8 6.7 94 0.4 CALM 0 0 0 0 - - 0.2
28/01:30am 7.5 6.7 6.6 94 0.4 CALM 0 0 0 0 - - 0.2
28/01:00am 7.9 6.8 7.0 94 0.4 E 2 6 1 3 - - 0.2
28/12:30am 7.6 6.1 6.7 94 0.4 SE 4 7 2 4 - - 0.2
28/12:00am 7.5 6.8 6.9 96 0.3 CALM 0 0 0 0 - - 0.2

Latest Capital City Observations: Canberra | Sydney | Melbourne | Brisbane | Adelaide | Perth | Hobart | Darwin

Other Formats:

Comma delimited format used in spreadsheet applications
http://www.bom.gov.au/fwo/IDT60901/IDT60901.94964.axf

JavaScript Object Notation format (JSON) in row-major order
http://www.bom.gov.au/fwo/IDT60901/IDT60901.94964.json